Time;durP1;ratioP1;P1;durP2;ratioP2;P2;SDS_P1;SDS_P2;PMS_P1;PMS_P2;Temp;Humidity;BMP_temperature;BMP_pressure;BME280_temperature;BME280_humidity;BME280_pressure;Samples;Min_cycle;Max_cycle;Signal;HPM_P1;HPM_P2
2020/12/21 00:02:33;;;;;;;30.75;10.18;;;;;;;4.43;69.46;100436.50;10498588;28;20053;-56
2020/12/21 00:07:36;;;;;;;28.25;8.85;;;;;;;4.32;68.69;100425.78;10498119;28;20062;-57
2020/12/21 00:12:38;;;;;;;22.88;9.07;;;;;;;4.29;69.13;100425.94;10497848;28;20040;-56
2020/12/21 00:17:39;;;;;;;23.20;7.63;;;;;;;4.33;69.49;100437.88;10498429;28;20139;-55
2020/12/21 00:22:42;;;;;;;23.13;8.80;;;;;;;4.31;69.05;100429.28;10498326;28;20126;-54
2020/12/21 00:27:43;;;;;;;23.67;7.38;;;;;;;4.37;69.20;100434.19;10496499;28;20048;-55
2020/12/21 00:32:45;;;;;;;20.13;8.18;;;;;;;4.31;69.27;100434.50;10525268;28;20135;-56
2020/12/21 00:37:48;;;;;;;24.88;9.82;;;;;;;4.30;69.55;100425.00;10539097;28;20050;-56
2020/12/21 00:42:49;;;;;;;21.00;8.35;;;;;;;4.32;69.41;100431.84;10539434;28;20089;-54
2020/12/21 00:47:51;;;;;;;20.52;7.38;;;;;;;4.35;68.98;100431.69;10515163;28;20048;-54
2020/12/21 00:52:53;;;;;;;22.35;7.85;;;;;;;4.35;69.49;100436.06;10496487;28;20058;-54
2020/12/21 00:57:55;;;;;;;20.77;7.28;;;;;;;4.30;68.98;100422.41;10496811;28;20121;-56
2020/12/21 01:02:56;;;;;;;22.30;7.13;;;;;;;4.28;69.00;100424.22;10496738;28;20048;-54
2020/12/21 01:07:59;;;;;;;22.40;6.78;;;;;;;4.21;69.20;100421.06;10497813;28;20060;-53
2020/12/21 01:13:01;;;;;;;17.38;5.50;;;;;;;4.19;69.46;100420.31;10497647;28;20521;-54
2020/12/21 01:18:02;;;;;;;20.58;8.63;;;;;;;4.23;69.00;100423.63;10497238;28;20535;-56
2020/12/21 01:23:05;;;;;;;18.83;7.13;;;;;;;4.25;68.77;100424.38;10497462;28;20040;-56
2020/12/21 01:28:06;;;;;;;23.35;9.40;;;;;;;4.26;69.06;100426.91;10495257;28;20114;-55
2020/12/21 01:33:08;;;;;;;18.75;7.72;;;;;;;4.37;69.09;100434.19;10529044;28;20044;-58
2020/12/21 01:38:10;;;;;;;16.73;6.85;;;;;;;4.49;69.31;100427.56;10553103;28;20044;-56
2020/12/21 01:43:12;;;;;;;18.40;6.95;;;;;;;4.51;68.61;100428.34;10538139;28;20048;-57
2020/12/21 01:48:14;;;;;;;17.88;6.75;;;;;;;4.43;68.79;100418.28;10504151;28;20063;-56
2020/12/21 01:53:17;;;;;;;16.40;6.75;;;;;;;4.34;68.57;100423.94;10503059;28;20052;-54
2020/12/21 01:58:19;;;;;;;15.98;6.97;;;;;;;4.30;68.63;100423.25;10503185;28;20133;-54
2020/12/21 02:03:21;;;;;;;14.88;6.35;;;;;;;4.25;68.74;100420.03;10502523;28;20095;-54
2020/12/21 02:08:23;;;;;;;18.10;7.07;;;;;;;4.22;68.65;100434.94;10502771;28;20853;-54
2020/12/21 02:13:25;;;;;;;21.70;7.45;;;;;;;4.26;69.16;100428.69;10502978;28;20191;-56
2020/12/21 02:18:27;;;;;;;13.65;5.93;;;;;;;4.36;69.05;100432.53;10502069;28;20044;-56
2020/12/21 02:23:29;;;;;;;14.95;6.18;;;;;;;4.47;68.67;100430.25;10502850;28;20496;-55
2020/12/21 02:28:31;;;;;;;13.90;6.22;;;;;;;4.50;69.07;100434.47;10500912;28;20059;-54
2020/12/21 02:33:32;;;;;;;15.45;6.90;;;;;;;4.45;68.63;100426.03;10535279;28;20074;-54
2020/12/21 02:38:35;;;;;;;12.30;4.68;;;;;;;4.39;68.85;100432.38;10543569;28;20044;-54
2020/12/21 02:43:36;;;;;;;12.07;5.10;;;;;;;4.29;68.57;100425.94;10542859;28;20052;-54
2020/12/21 02:48:38;;;;;;;13.65;5.68;;;;;;;4.34;68.61;100419.59;10543276;28;20515;-56
2020/12/21 02:53:41;;;;;;;18.55;6.28;;;;;;;4.38;68.76;100417.69;10542870;28;20044;-55
2020/12/21 02:58:42;;;;;;;16.67;6.72;;;;;;;4.42;68.73;100414.00;10542508;28;20474;-54
2020/12/21 03:03:44;;;;;;;23.95;6.65;;;;;;;4.40;68.79;100410.63;10542077;28;20051;-54
2020/12/21 03:08:46;;;;;;;13.00;5.60;;;;;;;4.35;68.96;100420.44;10542754;28;20059;-55
2020/12/21 03:13:48;;;;;;;12.40;5.35;;;;;;;4.38;69.07;100418.53;10542480;28;20040;-56
2020/12/21 03:18:50;;;;;;;16.65;6.53;;;;;;;4.40;68.95;100413.22;10543683;28;20055;-58
2020/12/21 03:23:52;;;;;;;13.00;5.50;;;;;;;4.40;68.24;100397.59;10542955;28;20484;-54
2020/12/21 03:28:54;;;;;;;17.13;6.57;;;;;;;4.34;68.36;100401.38;10510040;28;20052;-56
2020/12/21 03:33:55;;;;;;;17.80;7.30;;;;;;;4.34;68.31;100398.78;10500420;28;20053;-54
2020/12/21 03:38:58;;;;;;;17.70;7.43;;;;;;;4.34;68.33;100395.31;10499496;28;20056;-57
2020/12/21 03:44:00;;;;;;;14.57;5.32;;;;;;;4.28;68.78;100395.59;10499291;28;20052;-56
2020/12/21 03:49:02;;;;;;;14.43;6.53;;;;;;;4.23;68.69;100402.81;10498505;28;20519;-54
2020/12/21 03:54:04;;;;;;;16.50;7.03;;;;;;;4.21;69.24;100409.81;10498899;28;20036;-57
2020/12/21 03:59:06;;;;;;;14.13;6.55;;;;;;;4.28;68.61;100411.22;10505438;28;20056;-58
2020/12/21 04:04:08;;;;;;;14.80;6.15;;;;;;;4.45;68.91;100419.06;10498726;28;20097;-56
2020/12/21 04:09:11;;;;;;;13.18;6.45;;;;;;;4.45;67.95;100426.88;10497464;28;20044;-54
2020/12/21 04:14:12;;;;;;;16.67;6.35;;;;;;;4.42;68.29;100434.81;10498434;28;20063;-57
2020/12/21 04:19:14;;;;;;;17.10;5.63;;;;;;;4.42;68.76;100436.59;10498749;28;20111;-55
2020/12/21 04:24:16;;;;;;;15.90;6.13;;;;;;;4.44;68.69;100433.00;10498123;28;20040;-54
2020/12/21 04:29:18;;;;;;;13.88;6.80;;;;;;;4.47;67.99;100426.81;10496587;28;20089;-54
2020/12/21 04:34:20;;;;;;;14.85;6.68;;;;;;;4.53;68.28;100429.97;10538085;28;20136;-56
2020/12/21 04:39:22;;;;;;;16.02;6.55;;;;;;;4.51;68.03;100423.97;10539336;28;20389;-56
2020/12/21 04:44:26;;;;;;;17.35;6.85;;;;;;;4.48;68.42;100425.88;10529164;28;20044;-54
2020/12/21 04:49:28;;;;;;;15.98;6.22;;;;;;;4.44;68.23;100420.00;10497195;28;20052;-54
2020/12/21 04:54:30;;;;;;;15.65;6.88;;;;;;;4.49;67.98;100423.19;10497831;28;20476;-54
2020/12/21 04:59:32;;;;;;;15.68;7.10;;;;;;;4.51;68.36;100412.72;10497195;28;20060;-56
2020/12/21 05:04:34;;;;;;;14.38;6.65;;;;;;;4.59;68.43;100415.81;10497268;28;20068;-56
2020/12/21 05:09:36;;;;;;;12.30;6.05;;;;;;;4.54;68.46;100420.38;10500223;28;20083;-56
2020/12/21 05:14:38;;;;;;;13.32;6.28;;;;;;;4.63;68.03;100408.69;10505744;28;20044;-56
2020/12/21 05:19:40;;;;;;;18.30;7.30;;;;;;;4.58;67.70;100414.94;10505390;28;20086;-54
2020/12/21 05:24:44;;;;;;;17.13;7.03;;;;;;;4.50;67.77;100414.50;10503819;28;20067;-56
2020/12/21 05:29:52;;;;;;;;;;;;;;;4.44;68.01;100411.34;10503346;28;20052;-55
2020/12/21 05:35:05;;;;;;;15.45;7.32;;;;;;;4.47;68.44;100411.19;10504652;28;19982;-54
2020/12/21 05:40:09;;;;;;;18.93;7.17;;;;;;;4.51;67.93;100420.53;10503698;28;20048;-54
2020/12/21 05:45:10;;;;;;;;;;;;;;;4.55;67.72;100414.25;10503407;28;20090;-56
2020/12/21 05:50:12;;;;;;;13.25;5.50;;;;;;;4.60;68.14;100410.50;10504559;28;19935;-54
2020/12/21 05:55:14;;;;;;;15.02;6.30;;;;;;;4.54;67.95;100416.00;10503271;28;20040;-54
2020/12/21 06:00:16;;;;;;;14.75;7.00;;;;;;;4.42;67.98;100427.03;10503705;28;20082;-54
2020/12/21 06:05:21;;;;;;;16.02;5.90;;;;;;;4.29;68.27;100421.56;10502314;28;20044;-56
2020/12/21 06:10:29;;;;;;;18.40;6.85;;;;;;;4.27;68.27;100426.00;10503665;28;20117;-56
2020/12/21 06:15:31;;;;;;;18.83;7.13;;;;;;;4.28;68.57;100425.09;10502493;28;20041;-53
2020/12/21 06:20:42;;;;;;;20.05;7.72;;;;;;;4.31;68.34;100424.06;10506637;28;20052;-58
2020/12/21 06:25:45;;;;;;;18.98;8.48;;;;;;;4.29;68.71;100418.97;10502824;28;20139;-54
2020/12/21 06:30:46;;;;;;;15.50;7.22;;;;;;;4.33;68.71;100427.47;10502170;28;20103;-56
2020/12/21 06:35:48;;;;;;;18.77;7.82;;;;;;;4.39;68.69;100437.56;10502651;28;20074;-55
2020/12/21 06:40:51;;;;;;;16.25;7.20;;;;;;;4.36;67.84;100435.97;10501128;28;20067;-57
2020/12/21 06:45:52;;;;;;;13.27;6.07;;;;;;;4.38;68.83;100435.91;10502818;28;20492;-54
2020/12/21 06:50:54;;;;;;;17.05;6.85;;;;;;;4.38;68.31;100436.75;10502613;28;20480;-54
2020/12/21 06:55:56;;;;;;;14.30;6.90;;;;;;;4.48;68.56;100434.53;10500586;28;20458;-56
2020/12/21 07:00:58;;;;;;;18.80;7.22;;;;;;;4.53;67.94;100440.38;10500990;28;20539;-56
2020/12/21 07:05:59;;;;;;;14.90;5.72;;;;;;;4.56;67.82;100445.44;10499724;28;20440;-56
2020/12/21 07:11:02;;;;;;;18.15;8.75;;;;;;;4.51;67.62;100442.19;10500294;28;20048;-54
2020/12/21 07:16:04;;;;;;;16.55;7.78;;;;;;;4.50;68.11;100450.94;10478415;28;20055;-56
2020/12/21 07:21:09;;;;;;;21.25;8.10;;;;;;;4.52;68.45;100454.28;10458453;28;20057;-54
2020/12/21 07:26:13;;;;;;;14.57;6.95;;;;;;;4.56;68.11;100455.84;10466493;28;20044;-55
2020/12/21 07:31:16;;;;;;;15.85;8.13;;;;;;;4.61;68.65;100455.63;10498374;28;20102;-54
2020/12/21 07:36:18;;;;;;;14.63;7.07;;;;;;;4.67;68.03;100452.72;10498898;28;20044;-55
2020/12/21 07:41:24;;;;;;;13.30;5.70;;;;;;;4.66;68.57;100452.81;10498851;28;20059;-56
2020/12/21 07:46:29;;;;;;;13.23;6.93;;;;;;;4.68;68.78;100450.94;10498901;28;20342;-53
2020/12/21 07:51:33;;;;;;;18.38;8.40;;;;;;;4.68;68.51;100445.72;10495362;28;20110;-53
2020/12/21 07:56:36;;;;;;;16.33;7.45;;;;;;;4.75;68.45;100439.31;10458149;28;20057;-53
2020/12/21 08:01:39;;;;;;;17.13;7.60;;;;;;;4.82;68.12;100438.09;10456193;28;20060;-54
2020/12/21 08:06:41;;;;;;;12.23;5.80;;;;;;;4.79;67.92;100441.69;10455959;28;20048;-54
2020/12/21 08:11:44;;;;;;;17.48;7.68;;;;;;;4.71;68.71;100438.63;10454889;28;20053;-55
2020/12/21 08:16:45;;;;;;;15.95;8.13;;;;;;;4.84;68.64;100433.66;10455269;28;20056;-54
2020/12/21 08:21:47;;;;;;;16.05;7.95;;;;;;;5.05;68.87;100431.75;10455654;28;20078;-55
2020/12/21 08:26:50;;;;;;;14.73;7.38;;;;;;;5.12;68.69;100432.28;10470198;28;20498;-55
2020/12/21 08:31:52;;;;;;;16.48;7.25;;;;;;;5.12;68.18;100434.88;10516439;28;20499;-54
2020/12/21 08:36:56;;;;;;;17.25;7.32;;;;;;;5.04;68.64;100443.91;10538224;28;20484;-54
2020/12/21 08:41:59;;;;;;;15.40;6.68;;;;;;;5.19;68.07;100433.63;10538237;28;20104;-55
2020/12/21 08:47:01;;;;;;;14.60;6.70;;;;;;;5.16;67.86;100433.78;10536525;28;20138;-55
2020/12/21 08:52:03;;;;;;;13.57;6.68;;;;;;;5.10;68.41;100436.72;10537609;28;20040;-55
2020/12/21 08:57:06;;;;;;;14.68;7.55;;;;;;;5.16;68.20;100432.03;10509754;28;808426;-55
2020/12/21 09:02:08;;;;;;;14.45;6.72;;;;;;;5.22;68.09;100433.47;10539634;28;20147;-55
2020/12/21 09:07:09;;;;;;;14.70;6.55;;;;;;;5.31;68.37;100433.00;10538834;28;20396;-54
2020/12/21 09:12:12;;;;;;;13.15;6.43;;;;;;;5.25;68.64;100435.94;10539198;28;20055;-55
2020/12/21 09:17:14;;;;;;;12.20;5.95;;;;;;;5.24;68.57;100436.88;10537449;28;20393;-54
2020/12/21 09:22:16;;;;;;;12.00;5.43;;;;;;;5.25;68.53;100435.94;10538002;28;20109;-53
2020/12/21 09:27:18;;;;;;;14.05;6.97;;;;;;;5.24;67.95;100442.06;10520937;28;20045;-54
2020/12/21 09:32:20;;;;;;;13.57;6.85;;;;;;;5.24;68.15;100442.91;10519803;28;20484;-53
2020/12/21 09:37:21;;;;;;;16.75;7.93;;;;;;;5.23;68.46;100429.94;10536328;28;20040;-54
2020/12/21 09:42:24;;;;;;;13.80;5.90;;;;;;;5.23;67.81;100430.81;10496252;28;20535;-55
2020/12/21 09:47:26;;;;;;;16.10;6.80;;;;;;;5.18;68.21;100427.59;10495699;28;20385;-55
2020/12/21 09:52:27;;;;;;;14.98;7.53;;;;;;;5.05;67.56;100432.59;10494677;28;20045;-55
2020/12/21 09:57:30;;;;;;;13.00;5.65;;;;;;;5.00;67.68;100429.34;10501753;28;20072;-54
2020/12/21 10:02:32;;;;;;;12.52;6.57;;;;;;;5.02;67.94;100429.28;10503173;28;20044;-54
2020/12/21 10:07:34;;;;;;;15.18;6.95;;;;;;;4.99;67.70;100438.09;10502469;28;20041;-55
2020/12/21 10:12:38;;;;;;;15.95;6.97;;;;;;;5.11;68.11;100436.66;10503023;28;20056;-57
2020/12/21 10:17:40;;;;;;;13.38;6.50;;;;;;;5.13;67.78;100434.78;10499965;28;20052;-54
2020/12/21 10:22:42;;;;;;;13.05;7.13;;;;;;;5.18;68.04;100430.19;10502481;28;20175;-53
2020/12/21 10:27:44;;;;;;;15.07;7.07;;;;;;;5.16;67.80;100423.38;10502087;28;20072;-60
2020/12/21 10:32:46;;;;;;;14.23;7.00;;;;;;;5.15;67.86;100432.13;10530247;28;20107;-55
2020/12/21 10:37:48;;;;;;;14.48;6.82;;;;;;;5.07;67.72;100428.13;10544018;28;20077;-55
2020/12/21 10:42:50;;;;;;;16.17;6.60;;;;;;;5.02;67.75;100417.09;10543690;28;20472;-53
2020/12/21 10:47:52;;;;;;;16.38;8.60;;;;;;;4.95;67.76;100413.09;10505080;28;20045;-54
2020/12/21 10:52:54;;;;;;;14.05;6.85;;;;;;;4.92;68.31;100421.06;10501159;28;20138;-57
2020/12/21 10:57:57;;;;;;;14.20;6.13;;;;;;;5.10;68.16;100418.47;10501617;28;20505;-56
2020/12/21 11:02:58;;;;;;;12.85;6.50;;;;;;;5.19;68.04;100423.22;10501022;28;20048;-54
2020/12/21 11:08:00;;;;;;;12.43;6.78;;;;;;;5.23;68.05;100417.78;10498704;28;20381;-54
2020/12/21 11:13:02;;;;;;;16.35;7.50;;;;;;;5.13;68.08;100423.53;10500445;28;20048;-54
2020/12/21 11:18:04;;;;;;;14.02;6.97;;;;;;;5.12;68.13;100417.47;10500532;28;20138;-54
2020/12/21 11:23:06;;;;;;;14.30;7.53;;;;;;;5.04;67.94;100410.03;10499052;28;20060;-55
2020/12/21 11:28:10;;;;;;;17.17;7.60;;;;;;;5.04;68.01;100414.41;10498179;28;20065;-53
2020/12/21 11:33:11;;;;;;;14.82;7.18;;;;;;;5.13;68.18;100413.09;10530739;28;20044;-54
2020/12/21 11:38:15;;;;;;;14.88;7.60;;;;;;;5.04;68.15;100409.19;10540850;28;20059;-55
2020/12/21 11:43:18;;;;;;;17.23;7.43;;;;;;;4.94;67.72;100408.81;10489020;28;20052;-55
2020/12/21 11:48:19;;;;;;;16.40;6.63;;;;;;;4.89;67.65;100413.41;10457743;28;20056;-56
2020/12/21 11:53:21;;;;;;;16.08;6.90;;;;;;;4.85;67.53;100409.28;10458038;28;20052;-59
2020/12/21 11:58:25;;;;;;;16.65;7.97;;;;;;;4.83;68.13;100411.97;10459273;28;20092;-56
2020/12/21 12:03:27;;;;;;;13.45;7.40;;;;;;;4.71;67.73;100406.50;10456891;28;20382;-54
2020/12/21 12:08:29;;;;;;;16.25;7.50;;;;;;;4.73;68.27;100413.34;10456718;28;20106;-55
2020/12/21 12:13:31;;;;;;;14.63;7.45;;;;;;;4.75;67.64;100413.28;10457917;28;20443;-54
2020/12/21 12:18:33;;;;;;;15.80;7.75;;;;;;;4.79;67.69;100415.63;10488097;28;20444;-57
2020/12/21 12:23:35;;;;;;;14.43;6.65;;;;;;;4.76;67.60;100414.94;10494533;28;20718;-54
2020/12/21 12:28:38;;;;;;;12.50;7.07;;;;;;;4.78;67.99;100420.94;10498182;28;20392;-54
2020/12/21 12:33:40;;;;;;;14.68;7.40;;;;;;;4.76;67.54;100423.59;10531890;28;20097;-55
2020/12/21 12:38:41;;;;;;;14.38;7.30;;;;;;;4.77;67.75;100427.06;10539518;28;20062;-56
2020/12/21 12:43:44;;;;;;;15.98;6.95;;;;;;;4.76;67.49;100422.78;10539661;28;20116;-55
2020/12/21 12:48:46;;;;;;;18.38;7.68;;;;;;;4.74;68.06;100425.47;10492217;28;20053;-56
2020/12/21 12:53:47;;;;;;;14.90;6.97;;;;;;;4.80;67.64;100432.09;10497462;28;20044;-56
2020/12/21 12:58:51;;;;;;;14.15;6.88;;;;;;;4.75;67.65;100428.91;10496168;28;20064;-57
2020/12/21 13:03:52;;;;;;;16.20;6.80;;;;;;;4.76;67.59;100430.59;10496375;28;20098;-55
2020/12/21 13:08:54;;;;;;;16.67;7.78;;;;;;;4.68;66.94;100428.38;10498660;28;20287;-53
2020/12/21 13:13:57;;;;;;;14.27;6.85;;;;;;;4.67;67.31;100433.63;10497076;28;20485;-54
2020/12/21 13:18:58;;;;;;;14.73;7.22;;;;;;;4.69;67.37;100440.47;10483999;28;20504;-55
2020/12/21 13:24:00;;;;;;;13.20;8.13;;;;;;;4.67;67.36;100442.28;10455584;28;20053;-54
2020/12/21 13:29:03;;;;;;;13.80;6.80;;;;;;;4.68;67.33;100446.59;10487673;28;20470;-57
2020/12/21 13:34:05;;;;;;;13.32;7.28;;;;;;;4.74;67.00;100448.03;10541030;28;20055;-55
2020/12/21 13:39:06;;;;;;;14.43;6.72;;;;;;;4.73;67.21;100441.16;10546257;28;20051;-55
2020/12/21 13:44:09;;;;;;;16.33;7.25;;;;;;;4.81;67.65;100447.69;10530896;28;20049;-54
2020/12/21 13:49:10;;;;;;;16.50;8.82;;;;;;;4.79;66.94;100451.28;10504403;28;20056;-56
2020/12/21 13:54:12;;;;;;;15.60;7.90;;;;;;;4.79;67.02;100446.06;10507693;28;20044;-54
2020/12/21 13:59:14;;;;;;;16.65;7.60;;;;;;;4.81;66.95;100439.03;10506032;28;20079;-56
2020/12/21 14:04:16;;;;;;;18.38;7.78;;;;;;;4.90;66.91;100453.38;10504913;28;20135;-56
2020/12/21 14:09:18;;;;;;;15.75;7.72;;;;;;;4.75;67.17;100458.41;10503721;28;20480;-56
2020/12/21 14:14:20;;;;;;;15.40;8.05;;;;;;;4.71;67.54;100448.19;10503607;28;20139;-57
2020/12/21 14:19:22;;;;;;;14.90;7.43;;;;;;;4.68;67.07;100456.16;10503652;28;20049;-54
2020/12/21 14:24:23;;;;;;;16.05;8.15;;;;;;;4.67;67.04;100454.47;10504496;28;20048;-55
2020/12/21 14:29:26;;;;;;;16.75;9.82;;;;;;;4.70;67.38;100452.56;10501802;28;20167;-55
2020/12/21 14:34:28;;;;;;;14.68;8.55;;;;;;;4.72;67.08;100447.28;10543215;28;20048;-54
2020/12/21 14:39:30;;;;;;;18.38;9.75;;;;;;;4.71;67.08;100458.59;10543004;28;20051;-59
2020/12/21 14:44:32;;;;;;;18.08;9.02;;;;;;;4.77;67.65;100453.09;10543403;28;20464;-55
2020/12/21 14:49:34;;;;;;;19.77;9.50;;;;;;;4.90;67.55;100449.00;10543642;28;20048;-54
2020/12/21 14:54:35;;;;;;;16.38;8.80;;;;;;;4.90;66.72;100454.19;10543797;28;20059;-57
2020/12/21 14:59:38;;;;;;;18.80;9.77;;;;;;;4.90;66.90;100451.59;10543433;28;20052;-56
2020/12/21 15:04:39;;;;;;;18.85;9.13;;;;;;;4.85;67.23;100446.59;10515003;28;20041;-55
2020/12/21 15:09:41;;;;;;;18.92;9.50;;;;;;;4.88;67.13;100440.41;10500714;28;20055;-54
2020/12/21 15:14:44;;;;;;;22.48;10.30;;;;;;;4.84;66.85;100444.09;10501938;28;20488;-56
2020/12/21 15:19:45;;;;;;;22.67;10.30;;;;;;;4.90;67.21;100446.38;10501797;28;20055;-58
2020/12/21 15:24:47;;;;;;;21.67;9.40;;;;;;;4.80;66.94;100445.13;10500353;28;20462;-54
2020/12/21 15:29:49;;;;;;;20.55;10.20;;;;;;;4.80;67.65;100438.19;10499614;28;20059;-57
2020/12/21 15:34:51;;;;;;;20.77;9.70;;;;;;;4.88;67.69;100439.56;10499424;28;20044;-55
2020/12/21 15:39:53;;;;;;;19.75;9.57;;;;;;;4.89;67.40;100442.06;10499373;28;20048;-53
2020/12/21 15:44:55;;;;;;;24.20;8.57;;;;;;;4.94;67.06;100439.25;10496073;28;20480;-54
2020/12/21 15:49:57;;;;;;;18.88;9.45;;;;;;;4.81;67.11;100449.44;10498791;28;20052;-56
2020/12/21 15:54:59;;;;;;;17.77;9.55;;;;;;;4.80;67.20;100442.53;10484341;28;20040;-54
2020/12/21 16:00:01;;;;;;;20.83;9.65;;;;;;;4.75;67.65;100441.94;10474554;28;20061;-56
2020/12/21 16:05:08;;;;;;;18.35;9.05;;;;;;;4.73;67.50;100436.78;10456855;28;20136;-55
2020/12/21 16:10:11;;;;;;;21.50;9.43;;;;;;;4.72;67.37;100436.88;10496418;28;20238;-57
2020/12/21 16:15:14;;;;;;;25.55;11.35;;;;;;;4.72;67.05;100435.09;10498554;28;20481;-54
2020/12/21 16:20:15;;;;;;;21.23;8.73;;;;;;;4.83;67.21;100434.56;10497436;28;20055;-55
2020/12/21 16:25:17;;;;;;;17.70;9.00;;;;;;;5.00;66.75;100434.56;10498543;28;20072;-54
2020/12/21 16:30:19;;;;;;;17.52;8.70;;;;;;;5.01;66.71;100438.84;10497359;28;20048;-55
2020/12/21 16:35:21;;;;;;;19.13;9.65;;;;;;;5.05;67.17;100447.38;10497864;28;20040;-56
2020/12/21 16:40:23;;;;;;;20.30;9.85;;;;;;;4.98;66.84;100449.44;10497594;28;20079;-57
2020/12/21 16:45:25;;;;;;;18.88;9.40;;;;;;;5.03;67.01;100444.00;10497567;28;20083;-54
2020/12/21 16:50:27;;;;;;;17.50;8.60;;;;;;;5.05;66.93;100448.22;10495240;28;20044;-54
2020/12/21 16:55:29;;;;;;;21.58;10.20;;;;;;;5.04;67.34;100456.09;10496353;28;20044;-55
2020/12/21 17:00:31;;;;;;;20.25;9.75;;;;;;;5.06;67.04;100449.91;10496323;28;20116;-53
2020/12/21 17:05:33;;;;;;;20.47;10.03;;;;;;;5.16;66.65;100449.44;10502418;28;20052;-56
2020/12/21 17:10:35;;;;;;;20.13;9.95;;;;;;;5.15;67.00;100446.00;10506042;28;20044;-54
2020/12/21 17:15:37;;;;;;;20.15;10.43;;;;;;;5.11;66.91;100448.81;10504932;28;20055;-54
2020/12/21 17:20:39;;;;;;;19.05;8.70;;;;;;;5.18;66.74;100447.59;10506118;28;20191;-55
2020/12/21 17:25:41;;;;;;;18.23;9.15;;;;;;;5.23;66.73;100440.38;10505573;28;20102;-56
2020/12/21 17:30:44;;;;;;;18.92;9.65;;;;;;;5.28;66.12;100449.66;10505156;28;20052;-55
2020/12/21 17:35:46;;;;;;;19.27;9.03;;;;;;;5.22;66.72;100447.34;10503824;28;20048;-54
2020/12/21 17:40:48;;;;;;;15.27;8.35;;;;;;;5.29;66.52;100446.09;10503827;28;20147;-53
2020/12/21 17:45:52;;;;;;;16.13;8.30;;;;;;;5.23;66.76;100450.78;10503621;28;20060;-55
2020/12/21 17:50:54;;;;;;;16.75;8.80;;;;;;;5.18;66.80;100447.59;10503896;28;20045;-54
2020/12/21 17:55:56;;;;;;;13.68;7.40;;;;;;;5.24;66.23;100449.91;10503615;28;20067;-56
2020/12/21 18:00:58;;;;;;;15.07;7.82;;;;;;;5.30;66.67;100453.03;10503489;28;20392;-56
2020/12/21 18:06:00;;;;;;;13.65;7.25;;;;;;;5.29;66.38;100453.09;10499931;28;20055;-55
2020/12/21 18:11:02;;;;;;;14.93;7.63;;;;;;;5.31;66.01;100454.69;10470095;28;20440;-56
2020/12/21 18:16:04;;;;;;;14.60;7.63;;;;;;;5.26;66.34;100456.69;10473624;28;20362;-55
2020/12/21 18:21:06;;;;;;;14.60;8.48;;;;;;;5.21;66.63;100457.88;10502385;28;20053;-54
2020/12/21 18:26:07;;;;;;;14.57;7.50;;;;;;;5.31;66.17;100452.09;10501793;28;20060;-54
2020/12/21 18:31:10;;;;;;;14.25;7.20;;;;;;;5.23;65.96;100461.22;10501997;28;20044;-56
2020/12/21 18:36:12;;;;;;;12.73;6.97;;;;;;;5.35;65.97;100455.38;10501754;28;20060;-55
2020/12/21 18:41:14;;;;;;;13.07;6.82;;;;;;;5.33;66.28;100452.03;10502334;28;20052;-54
2020/12/21 18:46:17;;;;;;;14.65;7.55;;;;;;;5.31;66.27;100453.88;10503155;28;20048;-57
2020/12/21 18:51:18;;;;;;;16.23;7.72;;;;;;;5.27;66.35;100449.75;10501450;28;20052;-54
2020/12/21 18:56:20;;;;;;;14.73;7.15;;;;;;;5.28;66.19;100451.41;10502242;28;20179;-57
2020/12/21 19:01:24;;;;;;;13.93;7.57;;;;;;;5.19;66.41;100444.06;10499379;28;20546;-55
2020/12/21 19:06:26;;;;;;;;;;;;;;;5.10;66.62;100454.97;10499388;28;20048;-54
2020/12/21 19:11:27;;;;;;;11.77;6.85;;;;;;;5.11;66.27;100461.84;10500509;28;19935;-55
2020/12/21 19:16:31;;;;;;;13.55;6.97;;;;;;;5.15;66.45;100450.38;10499902;28;20465;-55
2020/12/21 19:21:32;;;;;;;11.93;6.13;;;;;;;5.18;66.14;100460.63;10499961;28;20090;-55
2020/12/21 19:26:34;;;;;;;11.82;6.18;;;;;;;5.23;66.25;100462.09;10498600;28;20123;-57
2020/12/21 19:31:38;;;;;;;11.75;6.18;;;;;;;5.30;66.02;100452.19;10498554;28;20056;-55
2020/12/21 19:36:40;;;;;;;14.57;7.07;;;;;;;5.25;66.38;100447.19;10500313;28;20040;-54
2020/12/21 19:41:42;;;;;;;11.93;6.28;;;;;;;5.26;65.49;100443.66;10499120;28;20072;-56
2020/12/21 19:46:44;;;;;;;12.02;6.90;;;;;;;5.17;66.29;100446.75;10497971;28;20045;-54
2020/12/21 19:51:49;;;;;;;12.52;6.53;;;;;;;5.28;66.43;100451.41;10500318;28;20121;-54
2020/12/21 19:56:51;;;;;;;13.50;7.38;;;;;;;5.28;65.82;100449.66;10498314;28;20196;-56
2020/12/21 20:01:59;;;;;;;15.35;7.63;;;;;;;5.27;65.81;100447.13;10497393;28;20048;-54
2020/12/21 20:07:01;;;;;;;12.45;6.70;;;;;;;5.29;66.02;100446.09;10498357;28;20067;-55
2020/12/21 20:12:03;;;;;;;13.32;7.10;;;;;;;5.30;65.92;100446.97;10498425;28;20045;-54
2020/12/21 20:17:07;;;;;;;13.93;7.45;;;;;;;5.27;66.01;100452.34;10497144;28;20044;-55
2020/12/21 20:22:08;;;;;;;13.38;6.82;;;;;;;5.22;66.17;100449.13;10497846;28;20118;-56
2020/12/21 20:27:10;;;;;;;13.00;7.00;;;;;;;5.22;66.07;100451.72;10497984;28;20512;-55
2020/12/21 20:32:13;;;;;;;14.90;7.22;;;;;;;5.27;65.91;100454.94;10499041;28;20055;-56
2020/12/21 20:37:15;;;;;;;13.48;6.43;;;;;;;5.33;65.57;100462.47;10496477;28;20051;-57
2020/12/21 20:42:17;;;;;;;12.07;6.13;;;;;;;5.29;66.09;100466.97;10497408;28;20405;-54
2020/12/21 20:47:19;;;;;;;14.20;7.30;;;;;;;5.25;65.83;100464.59;10497274;28;20382;-55
2020/12/21 20:52:21;;;;;;;13.00;6.90;;;;;;;5.25;66.29;100464.59;10496974;28;20045;-55
2020/12/21 20:57:23;;;;;;;14.20;7.05;;;;;;;5.25;66.27;100469.81;10497493;28;20056;-56
2020/12/21 21:02:25;;;;;;;16.13;7.55;;;;;;;5.25;65.84;100469.81;10496220;28;20397;-56
2020/12/21 21:07:27;;;;;;;12.10;6.25;;;;;;;5.25;65.70;100470.66;10496987;28;20045;-55
2020/12/21 21:12:28;;;;;;;13.25;7.00;;;;;;;5.37;65.54;100477.00;10496737;28;20147;-57
2020/12/21 21:17:31;;;;;;;13.88;6.75;;;;;;;5.31;65.55;100475.56;10495706;28;20044;-54
2020/12/21 21:22:33;;;;;;;10.45;5.72;;;;;;;5.34;65.77;100464.13;10497259;28;20199;-54
2020/12/21 21:27:34;;;;;;;14.38;7.07;;;;;;;5.35;65.76;100463.19;10495242;28;20059;-53
2020/12/21 21:32:37;;;;;;;12.75;6.50;;;;;;;5.40;65.42;100453.38;10496255;28;20053;-55
2020/12/21 21:37:39;;;;;;;12.05;6.93;;;;;;;5.38;65.44;100454.38;10496445;28;20063;-56
2020/12/21 21:42:41;;;;;;;15.23;7.63;;;;;;;5.23;65.59;100451.66;10495939;28;20401;-54
2020/12/21 21:47:43;;;;;;;12.13;6.47;;;;;;;5.16;66.31;100454.66;10495902;28;20067;-56
2020/12/21 21:52:45;;;;;;;12.25;6.28;;;;;;;5.24;66.29;100457.72;10500685;28;20486;-55
2020/12/21 21:57:46;;;;;;;13.55;6.22;;;;;;;5.31;65.52;100457.31;10502383;28;20064;-54
2020/12/21 22:02:49;;;;;;;13.50;6.20;;;;;;;5.25;65.61;100448.97;10504727;28;20052;-59
2020/12/21 22:07:50;;;;;;;10.85;5.75;;;;;;;5.20;65.69;100450.94;10484932;28;20049;-56
2020/12/21 22:12:52;;;;;;;10.45;5.47;;;;;;;5.23;65.71;100446.44;10501953;28;20131;-54
2020/12/21 22:17:55;;;;;;;13.77;6.43;;;;;;;5.32;65.54;100445.09;10502983;28;20040;-55
2020/12/21 22:22:57;;;;;;;13.70;6.53;;;;;;;5.48;65.70;100445.16;10502574;28;20787;-54
2020/12/21 22:27:58;;;;;;;11.80;6.13;;;;;;;5.56;65.04;100443.00;10500820;28;20048;-55
2020/12/21 22:33:01;;;;;;;11.25;6.20;;;;;;;5.54;64.96;100445.69;10532592;28;20442;-56
2020/12/21 22:38:03;;;;;;;10.95;5.80;;;;;;;5.42;65.30;100445.47;10544321;28;20044;-57
2020/12/21 22:43:04;;;;;;;11.80;6.32;;;;;;;5.33;66.02;100459.84;10543585;28;20404;-57
2020/12/21 22:48:07;;;;;;;12.48;6.28;;;;;;;5.34;65.54;100456.31;10504223;28;20102;-54
2020/12/21 22:53:09;;;;;;;10.43;5.38;;;;;;;5.42;65.08;100440.25;10501680;28;20063;-54
2020/12/21 22:58:10;;;;;;;13.18;6.18;;;;;;;5.42;65.12;100446.34;10499512;28;20067;-56
2020/12/21 23:03:13;;;;;;;11.05;5.82;;;;;;;5.30;65.21;100447.81;10500605;28;20048;-56
2020/12/21 23:08:14;;;;;;;10.60;5.53;;;;;;;5.21;65.55;100450.88;10500885;28;20048;-56